createdAt,value
2018-12-03T00:01:27.333Z,97465.03
2018-12-03T00:03:39.604Z,97464.31
2018-12-03T00:05:51.945Z,97466.33
2018-12-03T00:08:04.208Z,97466.22
2018-12-03T00:10:16.385Z,97460.19
2018-12-03T00:12:28.572Z,97467.75
2018-12-03T00:14:40.793Z,97467.52
2018-12-03T00:16:53.041Z,97471.32
2018-12-03T00:19:06.030Z,97464.92
2018-12-03T00:21:18.184Z,97469.99
2018-12-03T00:23:30.410Z,97463.86
2018-12-03T00:25:42.631Z,97464.79
2018-12-03T00:27:54.811Z,97462.91
2018-12-03T00:30:08.556Z,97463.59
2018-12-03T00:32:20.740Z,97462.77
2018-12-03T00:34:32.917Z,97466.68
2018-12-03T00:36:45.127Z,97467.88
2018-12-03T00:38:57.454Z,97466.58
2018-12-03T00:41:09.647Z,97462.88
2018-12-03T00:43:21.832Z,97466.92
2018-12-03T00:45:34.054Z,97466.09
2018-12-03T00:47:46.255Z,97462.88
2018-12-03T00:49:58.437Z,97463.27
2018-12-03T00:52:10.632Z,97465.04
2018-12-03T00:54:22.790Z,97477.55
2018-12-03T00:56:34.978Z,97477.92
2018-12-03T00:58:47.157Z,97487.86
2018-12-03T01:00:59.358Z,97478.73
2018-12-03T01:03:11.549Z,97480.64
2018-12-03T01:05:23.744Z,97482.53
2018-12-03T01:07:36.010Z,97472.94
2018-12-03T01:09:48.232Z,97471.50
2018-12-03T01:12:00.457Z,97473.66
2018-12-03T01:14:12.612Z,97472.35
2018-12-03T01:16:24.830Z,97472.24
2018-12-03T01:18:37.012Z,97476.39
2018-12-03T01:20:49.180Z,97488.31
2018-12-03T01:23:01.382Z,97483.48
2018-12-03T01:25:13.550Z,97487.73
2018-12-03T01:27:25.739Z,97491.88
2018-12-03T01:29:37.902Z,97503.72
2018-12-03T01:31:50.086Z,97498.38
2018-12-03T01:34:02.249Z,97485.97
2018-12-03T01:36:14.439Z,97500.19
2018-12-03T01:38:26.633Z,97500.77
2018-12-03T01:40:38.901Z,97500.41
2018-12-03T01:42:51.143Z,97503.37
2018-12-03T01:45:03.949Z,97495.55
2018-12-03T01:47:16.164Z,97491.07
2018-12-03T01:49:28.308Z,97492.95
2018-12-03T01:51:40.470Z,97499.70
2018-12-03T01:53:52.692Z,97493.89
2018-12-03T01:56:04.913Z,97498.61
2018-12-03T01:58:17.098Z,97499.91
2018-12-03T02:00:29.253Z,97500.63
2018-12-03T02:02:41.568Z,97494.73
2018-12-03T02:04:53.733Z,97495.67
2018-12-03T02:07:05.927Z,97496.98
2018-12-03T02:09:18.100Z,97490.47
2018-12-03T02:11:30.271Z,97489.86
2018-12-03T02:13:42.456Z,97490.23
2018-12-03T02:15:54.617Z,97487.60
2018-12-03T02:18:06.816Z,97483.94
2018-12-03T02:20:18.994Z,97487.39
2018-12-03T02:22:31.224Z,97490.71
2018-12-03T02:24:43.409Z,97489.75
2018-12-03T02:26:55.573Z,97484.89
2018-12-03T02:29:07.736Z,97488.93
2018-12-03T02:31:19.969Z,97493.05
2018-12-03T02:33:32.166Z,97491.88
2018-12-03T02:35:44.347Z,97492.45
2018-12-03T02:37:56.525Z,97490.23
2018-12-03T02:40:13.722Z,97491.74
2018-12-03T02:42:25.898Z,97489.86
2018-12-03T02:44:38.077Z,97493.66
2018-12-03T02:46:50.278Z,97496.61
2018-12-03T02:49:02.449Z,97494.23
2018-12-03T02:51:14.644Z,97491.30
2018-12-03T02:53:26.817Z,97497.56
2018-12-03T02:55:39.004Z,97499.34
2018-12-03T02:57:51.243Z,97496.73
2018-12-03T03:00:14.782Z,97497.08
2018-12-03T03:02:26.960Z,97497.56
2018-12-03T03:04:39.107Z,97488.58
2018-12-03T03:06:51.274Z,97500.98
2018-12-03T03:09:05.154Z,97490.81
2018-12-03T03:11:17.365Z,97490.09
2018-12-03T03:13:29.512Z,97490.47
2018-12-03T03:15:41.713Z,97486.91
2018-12-03T03:17:53.881Z,97488.20
2018-12-03T03:20:07.744Z,97480.16
2018-12-03T03:22:19.930Z,97482.89
2018-12-03T03:24:32.100Z,97480.66
2018-12-03T03:26:44.395Z,97482.65
2018-12-03T03:28:56.586Z,97479.94
2018-12-03T03:31:08.783Z,97483.73
2018-12-03T03:33:20.938Z,97489.89
2018-12-03T03:35:33.088Z,97495.09
2018-12-03T03:37:45.262Z,97494.83
2018-12-03T03:39:57.441Z,97498.02
2018-12-03T03:42:09.596Z,97499.81
2018-12-03T03:44:21.928Z,97500.87
2018-12-03T03:46:34.116Z,97505.98
2018-12-03T03:48:46.298Z,97509.41
2018-12-03T03:50:58.495Z,97508.45
2018-12-03T03:53:10.697Z,97504.66
2018-12-03T03:55:22.878Z,97499.56
2018-12-03T03:57:35.066Z,97497.09
2018-12-03T03:59:47.258Z,97498.39
2018-12-03T04:01:59.431Z,97501.69
2018-12-03T04:04:11.595Z,97497.55
2018-12-03T04:06:23.749Z,97501.22
2018-12-03T04:08:35.953Z,97494.36
2018-12-03T04:10:48.125Z,97492.20
2018-12-03T04:13:00.292Z,97497.65
2018-12-03T04:15:13.306Z,97499.56
2018-12-03T04:17:25.457Z,97504.41
2018-12-03T04:19:37.666Z,97508.55
2018-12-03T04:21:49.825Z,97500.84
2018-12-03T04:24:01.992Z,97502.73
2018-12-03T04:26:14.213Z,97505.95
2018-12-03T04:28:26.397Z,97505.47
2018-12-03T04:30:38.601Z,97510.78
2018-12-03T04:32:51.636Z,97501.69
2018-12-03T04:35:04.491Z,97500.63
2018-12-03T04:37:16.710Z,97505.62
2018-12-03T04:39:28.898Z,97499.69
2018-12-03T04:41:41.075Z,97503.95
2018-12-03T04:43:53.235Z,97504.78
2018-12-03T04:46:05.420Z,97515.80
2018-12-03T04:48:17.569Z,97508.45
2018-12-03T04:50:29.839Z,97513.17
2018-12-03T04:52:42.091Z,97508.34
2018-12-03T04:54:54.276Z,97505.02
2018-12-03T04:57:06.466Z,97506.67
2018-12-03T04:59:18.637Z,97502.55
2018-12-03T05:01:30.832Z,97497.09
2018-12-03T05:03:42.986Z,97501.72
2018-12-03T05:05:55.180Z,97497.09
2018-12-03T05:08:07.345Z,97496.14
2018-12-03T05:10:20.471Z,97500.39
2018-12-03T05:12:32.676Z,97490.71
2018-12-03T05:14:44.829Z,97489.76
2018-12-03T05:16:57.001Z,97500.64
2018-12-03T05:19:09.206Z,97500.87
2018-12-03T05:21:21.389Z,97508.33
2018-12-03T05:23:33.591Z,97508.20
2018-12-03T05:25:45.805Z,97495.09
2018-12-03T05:27:57.985Z,97499.95
2018-12-03T05:30:13.164Z,97500.05
2018-12-03T05:32:25.329Z,97495.80
2018-12-03T05:34:37.480Z,97493.89
2018-12-03T05:36:49.689Z,97498.63
2018-12-03T05:39:01.986Z,97497.94
2018-12-03T05:41:14.153Z,97501.58
2018-12-03T05:43:26.376Z,97511.89
2018-12-03T05:45:38.546Z,97516.48
2018-12-03T05:47:50.816Z,97505.62
2018-12-03T05:50:03.362Z,97514.48
2018-12-03T05:52:15.526Z,97517.94
2018-12-03T05:54:27.733Z,97524.18
2018-12-03T05:56:43.228Z,97527.85
2018-12-03T05:58:55.434Z,97517.57
2018-12-03T06:01:07.633Z,97519.70
2018-12-03T06:03:19.884Z,97525.25
2018-12-03T06:05:32.091Z,97520.05
2018-12-03T06:07:44.321Z,97528.93
2018-12-03T06:09:56.536Z,97528.80
2018-12-03T06:12:08.783Z,97530.10
2018-12-03T06:14:20.991Z,97530.69
2018-12-03T06:16:33.205Z,97531.66
2018-12-03T06:18:45.440Z,97528.20
2018-12-03T06:20:57.641Z,97538.61
2018-12-03T06:23:09.853Z,97530.45
2018-12-03T06:25:24.642Z,97547.28
2018-12-03T06:27:36.893Z,97537.20
2018-12-03T06:29:49.099Z,97536.01
2018-12-03T06:32:01.313Z,97538.27
2018-12-03T06:34:13.501Z,97539.59
2018-12-03T06:36:25.685Z,97545.73
2018-12-03T06:38:37.880Z,97541.94
2018-12-03T06:40:50.108Z,97542.53
2018-12-03T06:43:02.308Z,97540.75
2018-12-03T06:45:15.806Z,97536.16
2018-12-03T06:47:28.024Z,97527.98
2018-12-03T06:49:40.405Z,97525.86
2018-12-03T06:51:52.533Z,97526.44
2018-12-03T06:54:05.070Z,97527.16
2018-12-03T06:56:17.311Z,97530.00
2018-12-03T06:58:29.512Z,97536.51
2018-12-03T07:00:43.621Z,97539.45
2018-12-03T07:02:55.831Z,97538.63
2018-12-03T07:05:09.055Z,97549.63
2018-12-03T07:07:21.289Z,97541.22
2018-12-03T07:09:33.493Z,97547.86
2018-12-03T07:11:45.746Z,97551.98
2018-12-03T07:13:57.938Z,97556.50
2018-12-03T07:16:10.234Z,97566.19
2018-12-03T07:18:22.497Z,97559.10
2018-12-03T07:20:34.755Z,97564.66
2018-12-03T07:22:46.960Z,97565.97
2018-12-03T07:24:59.166Z,97563.95
2018-12-03T07:27:11.365Z,97557.22
2018-12-03T07:29:23.582Z,97559.80
2018-12-03T07:31:35.814Z,97561.11
2018-12-03T07:33:47.992Z,97565.95
2018-12-03T07:36:00.177Z,97567.74
2018-12-03T07:38:12.381Z,97562.05
2018-12-03T07:40:24.608Z,97565.00
2018-12-03T07:42:36.902Z,97565.59
2018-12-03T07:44:49.107Z,97563.58
2018-12-03T07:47:01.385Z,97571.84
2018-12-03T07:49:13.667Z,97571.73
2018-12-03T07:51:25.903Z,97577.64
2018-12-03T07:53:38.161Z,97576.92
2018-12-03T07:55:50.411Z,97579.19
2018-12-03T07:58:05.714Z,97575.17
2018-12-03T08:00:19.724Z,97574.10
2018-12-03T08:02:31.918Z,97577.05
2018-12-03T08:04:44.149Z,97585.23
2018-12-03T08:06:56.370Z,97587.16
2018-12-03T08:09:09.014Z,97579.09
2018-12-03T08:11:21.221Z,97572.36
2018-12-03T08:13:33.437Z,97577.09
2018-12-03T08:15:45.694Z,97579.34
2018-12-03T08:18:01.513Z,97579.00
2018-12-03T08:20:17.128Z,97579.92
2018-12-03T08:22:29.357Z,97583.14
2018-12-03T08:24:41.582Z,97588.34
2018-12-03T08:26:53.828Z,97587.97
2018-12-03T08:29:07.252Z,97588.21
2018-12-03T08:31:19.497Z,97589.52
2018-12-03T08:33:33.430Z,97579.11
2018-12-03T08:35:45.648Z,97586.09
2018-12-03T08:38:03.240Z,97582.53
2018-12-03T08:40:18.787Z,97582.51
2018-12-03T08:42:31.007Z,97583.44
2018-12-03T08:44:43.213Z,97577.51
2018-12-03T08:46:55.411Z,97570.89
2018-12-03T08:49:08.111Z,97583.68
2018-12-03T08:51:20.342Z,97585.01
2018-12-03T08:53:32.549Z,97583.91
2018-12-03T08:55:44.745Z,97579.91
2018-12-03T08:57:57.006Z,97579.88
2018-12-03T09:00:11.017Z,97580.36
2018-12-03T09:02:23.296Z,97584.61
2018-12-03T09:04:35.524Z,97582.94
2018-12-03T09:06:47.749Z,97577.58
2018-12-03T09:08:59.957Z,97570.13
2018-12-03T09:11:12.173Z,97573.67
2018-12-03T09:13:24.517Z,97576.66
2018-12-03T09:15:36.788Z,97574.39
2018-12-03T09:17:48.993Z,97570.81
2018-12-03T09:20:01.189Z,97575.65
2018-12-03T09:22:13.405Z,97584.63
2018-12-03T09:24:25.582Z,97574.88
2018-12-03T09:26:39.469Z,97566.59
2018-12-03T09:28:51.669Z,97584.97
2018-12-03T09:31:04.146Z,97584.86
2018-12-03T09:33:16.369Z,97579.98
2018-12-03T09:35:28.593Z,97591.01
2018-12-03T09:37:40.837Z,97583.90
2018-12-03T09:39:53.098Z,97587.34
2018-12-03T09:42:05.758Z,97587.34
2018-12-03T09:44:17.853Z,97577.28
2018-12-03T09:46:30.065Z,97582.98
2018-12-03T09:49:13.949Z,97578.11
2018-12-03T09:51:27.844Z,97584.53
2018-12-03T09:53:38.692Z,97584.87
2018-12-03T09:55:49.527Z,97583.81
2018-12-03T09:58:00.387Z,97588.45
2018-12-03T10:00:14.316Z,97582.31
2018-12-03T10:02:25.175Z,97582.66
2018-12-03T10:04:35.992Z,97584.68
2018-12-03T10:06:46.813Z,97594.42
2018-12-03T10:08:57.822Z,97580.09
2018-12-03T10:11:08.648Z,97575.01
2018-12-03T10:13:19.501Z,97570.75
2018-12-03T10:15:30.354Z,97565.20
2018-12-03T10:17:43.885Z,97560.23
2018-12-03T10:19:54.721Z,97562.49
2018-12-03T10:22:05.700Z,97544.08
2018-12-03T10:24:16.538Z,97538.42
2018-12-03T10:26:27.357Z,97529.64
2018-12-03T10:28:38.268Z,97523.26
2018-12-03T10:30:49.113Z,97518.53
2018-12-03T10:32:59.984Z,97510.08
2018-12-03T10:35:11.089Z,97512.30
2018-12-03T10:37:21.911Z,97501.05
2018-12-03T10:39:32.765Z,97495.59
2018-12-03T10:41:43.604Z,97487.97
2018-12-03T10:43:54.943Z,97487.13
2018-12-03T10:46:05.941Z,97471.83
2018-12-03T10:48:16.781Z,97469.40
2018-12-03T10:50:27.632Z,97456.20
2018-12-03T10:52:38.515Z,97465.79
2018-12-03T10:54:49.354Z,97466.22
2018-12-03T10:57:01.376Z,97460.64
2018-12-03T10:59:12.233Z,97461.41
2018-12-03T11:01:23.125Z,97449.66
2018-12-03T11:06:22.503Z,97455.42
2018-12-03T11:08:33.561Z,97453.86
2018-12-03T11:10:44.523Z,97433.83
2018-12-03T11:12:55.376Z,97435.11
2018-12-03T11:15:09.168Z,97444.73
2018-12-03T11:17:20.133Z,97432.36
2018-12-03T11:19:30.999Z,97434.70
2018-12-03T11:21:42.089Z,97443.02
2018-12-03T11:23:53.053Z,97451.90
2018-12-03T11:26:04.868Z,97445.38
2018-12-03T11:28:16.120Z,97441.54
2018-12-03T11:30:27.055Z,97442.10
2018-12-03T11:32:37.930Z,97448.86
2018-12-03T11:34:48.807Z,97435.99
2018-12-03T11:36:59.776Z,97439.80
2018-12-03T11:39:10.858Z,97440.02
2018-12-03T11:41:21.825Z,97432.87
2018-12-03T11:43:32.706Z,97440.44
2018-12-03T11:45:43.658Z,97436.27
2018-12-03T11:47:54.633Z,97436.74
2018-12-03T11:50:07.637Z,97441.56
2018-12-03T11:52:18.499Z,97459.91
2018-12-03T11:54:29.343Z,97458.31
2018-12-03T11:56:40.198Z,97456.88
2018-12-03T11:58:51.039Z,97451.50
2018-12-03T12:01:01.890Z,97450.08
2018-12-03T12:03:12.725Z,97448.91
2018-12-03T12:05:23.650Z,97456.41
2018-12-03T12:07:34.581Z,97468.39
2018-12-03T12:09:45.433Z,97456.91
2018-12-03T12:11:56.276Z,97460.69
2018-12-03T12:14:11.165Z,97458.58
2018-12-03T12:16:22.033Z,97452.66
2018-12-03T12:18:32.887Z,97443.94
2018-12-03T12:20:43.739Z,97439.79
2018-12-03T12:22:54.669Z,97433.42
2018-12-03T12:25:05.653Z,97431.88
2018-12-03T12:27:16.543Z,97424.45
2018-12-03T12:29:27.477Z,97414.98
2018-12-03T12:31:38.449Z,97424.79
2018-12-03T12:33:49.430Z,97421.98
2018-12-03T12:36:00.382Z,97416.97
2018-12-03T12:38:11.242Z,97412.24
2018-12-03T12:40:22.098Z,97408.23
2018-12-03T12:42:32.967Z,97399.11
2018-12-03T12:44:43.800Z,97403.38
2018-12-03T12:46:54.660Z,97408.72
2018-12-03T12:49:05.646Z,97414.45
2018-12-03T12:51:16.498Z,97414.80
2018-12-03T12:53:27.336Z,97414.80
2018-12-03T12:55:38.260Z,97409.10
2018-12-03T12:57:49.116Z,97410.03
2018-12-03T13:00:00.035Z,97403.51
2018-12-03T13:02:10.893Z,97405.63
2018-12-03T13:04:21.818Z,97403.61
2018-12-03T13:06:32.664Z,97401.63
2018-12-03T13:08:43.514Z,97392.27
2018-12-03T13:10:54.390Z,97395.94
2018-12-03T13:13:05.361Z,97388.84
2018-12-03T13:15:16.211Z,97383.30
2018-12-03T13:17:27.090Z,97372.41
2018-12-03T13:19:37.929Z,97389.47
2018-12-03T13:21:48.809Z,97379.25
2018-12-03T13:23:59.686Z,97390.25
2018-12-03T13:26:10.534Z,97401.25
2018-12-03T13:28:21.425Z,97403.80
2018-12-03T13:30:32.307Z,97397.18
2018-12-03T13:32:43.265Z,97395.25
2018-12-03T13:34:54.127Z,97391.69
2018-12-03T13:37:07.146Z,97390.36
2018-12-03T13:39:18.037Z,97392.58
2018-12-03T13:41:28.980Z,97387.46
2018-12-03T13:43:39.843Z,97382.66
2018-12-03T13:45:50.898Z,97372.32
2018-12-03T13:48:01.786Z,97359.75
2018-12-03T13:50:12.768Z,97358.45
2018-12-03T13:52:23.654Z,97354.06
2018-12-03T13:54:34.514Z,97346.73
2018-12-03T13:56:45.333Z,97361.52
2018-12-03T13:58:56.209Z,97367.11
2018-12-03T14:01:07.044Z,97373.63
2018-12-03T14:03:17.883Z,97370.53
2018-12-03T14:05:30.142Z,97372.32
2018-12-03T14:07:40.965Z,97370.64
2018-12-03T14:09:52.207Z,97375.75
2018-12-03T14:12:03.396Z,97377.28
2018-12-03T14:14:14.508Z,97365.18
2018-12-03T14:16:25.341Z,97361.89
2018-12-03T14:18:36.213Z,97364.59
2018-12-03T14:20:47.108Z,97357.20
2018-12-03T14:22:57.998Z,97365.39
2018-12-03T14:25:08.873Z,97366.80
2018-12-03T14:27:19.753Z,97375.45
2018-12-03T14:29:30.586Z,97374.71
2018-12-03T14:31:41.573Z,97379.33
2018-12-03T14:33:52.438Z,97378.85
2018-12-03T14:36:03.946Z,97385.80
2018-12-03T14:38:14.824Z,97375.03
2018-12-03T14:40:25.665Z,97383.47
2018-12-03T14:42:36.498Z,97379.42
2018-12-03T14:44:47.341Z,97376.67
2018-12-03T14:46:58.241Z,97383.42
2018-12-03T14:49:09.095Z,97372.99
2018-12-03T14:51:19.973Z,97383.02
2018-12-03T14:53:30.953Z,97394.39
2018-12-03T14:55:41.858Z,97386.31
2018-12-03T14:57:52.756Z,97387.70
2018-12-03T15:00:04.329Z,97378.09
2018-12-03T15:02:15.224Z,97380.93
2018-12-03T15:04:26.084Z,97376.05
2018-12-03T15:06:36.961Z,97373.59
2018-12-03T15:08:48.050Z,97369.56
2018-12-03T15:10:58.914Z,97368.88
2018-12-03T15:13:09.847Z,97368.40
2018-12-03T15:15:20.710Z,97362.36
2018-12-03T15:17:31.561Z,97358.94
2018-12-03T15:19:42.429Z,97352.27
2018-12-03T15:21:53.291Z,97358.79
2018-12-03T15:24:04.158Z,97352.27
2018-12-03T15:26:15.001Z,97353.23
2018-12-03T15:28:25.906Z,97346.46
2018-12-03T15:30:36.730Z,97333.16
2018-12-03T15:32:47.614Z,97322.02
2018-12-03T15:34:58.533Z,97330.67
2018-12-03T15:37:09.380Z,97331.15
2018-12-03T15:39:20.233Z,97336.03
2018-12-03T15:41:31.109Z,97344.45
2018-12-03T15:43:41.967Z,97349.80
2018-12-03T15:45:52.821Z,97354.20
2018-12-03T15:48:03.683Z,97351.59
2018-12-03T15:50:14.548Z,97357.15
2018-12-03T15:52:25.431Z,97356.81
2018-12-03T15:54:36.276Z,97359.13
2018-12-03T15:56:47.140Z,97356.89
2018-12-03T15:58:58.033Z,97351.93
2018-12-03T16:01:14.317Z,97355.22
2018-12-03T16:03:21.752Z,97341.61
2018-12-03T16:05:32.603Z,97328.46
2018-12-03T16:07:43.497Z,97330.44
2018-12-03T16:09:54.356Z,97331.30
2018-12-03T16:12:05.223Z,97334.02
2018-12-03T16:14:16.090Z,97324.89
2018-12-03T16:16:27.092Z,97325.97
2018-12-03T16:18:37.968Z,97320.89
2018-12-03T16:20:48.825Z,97314.89
2018-12-03T16:22:59.701Z,97324.90
2018-12-03T16:25:10.597Z,97331.05
2018-12-03T16:27:21.493Z,97332.27
2018-12-03T16:29:32.341Z,97332.16
2018-12-03T16:31:43.205Z,97335.69
2018-12-03T16:33:54.076Z,97336.43
2018-12-03T16:36:05.006Z,97326.97
2018-12-03T16:38:15.903Z,97317.19
2018-12-03T16:40:26.745Z,97313.33
2018-12-03T16:42:37.633Z,97304.66
2018-12-03T16:44:48.473Z,97313.19
2018-12-03T16:46:59.313Z,97301.43
2018-12-03T16:49:10.202Z,97298.03
2018-12-03T16:51:21.102Z,97299.28
2018-12-03T16:53:31.941Z,97285.74
2018-12-03T16:55:42.814Z,97300.06
2018-12-03T16:57:53.680Z,97297.38
2018-12-03T17:00:07.513Z,97302.61
2018-12-03T17:02:18.407Z,97294.80
2018-12-03T17:04:29.254Z,97295.16
2018-12-03T17:06:40.230Z,97292.92
2018-12-03T17:08:51.097Z,97288.49
2018-12-03T17:11:01.968Z,97289.45
2018-12-03T17:13:12.871Z,97281.41
2018-12-03T17:15:23.706Z,97275.38
2018-12-03T17:17:34.550Z,97274.56
2018-12-03T17:19:45.404Z,97274.92
2018-12-03T17:21:56.645Z,97268.64
2018-12-03T17:24:07.533Z,97271.02
2018-12-03T17:26:18.425Z,97267.36
2018-12-03T17:28:29.293Z,97265.37
2018-12-03T17:30:40.159Z,97274.15
2018-12-03T17:32:51.018Z,97278.30
2018-12-03T17:35:01.933Z,97270.26
2018-12-03T17:37:12.807Z,97255.94
2018-12-03T17:39:23.686Z,97256.33
2018-12-03T17:41:34.640Z,97254.31
2018-12-03T17:43:45.531Z,97237.05
2018-12-03T17:45:56.442Z,97237.39
2018-12-03T17:48:07.321Z,97236.42
2018-12-03T17:50:18.201Z,97235.13
2018-12-03T17:52:29.086Z,97238.44
2018-12-03T17:54:40.021Z,97232.07
2018-12-03T17:56:50.879Z,97238.69
2018-12-03T17:59:01.749Z,97224.87
2018-12-03T18:01:12.629Z,97238.73
2018-12-03T18:03:23.490Z,97218.92
2018-12-03T18:05:34.371Z,97227.11
2018-12-03T18:07:45.257Z,97212.65
2018-12-03T18:09:56.092Z,97216.45
2018-12-03T18:12:06.973Z,97218.34
2018-12-03T18:14:17.804Z,97217.17
2018-12-03T18:16:28.675Z,97201.27
2018-12-03T18:18:39.506Z,97204.16
2018-12-03T18:20:50.408Z,97208.97
2018-12-03T18:23:01.359Z,97216.89
2018-12-03T18:25:12.204Z,97214.29
2018-12-03T18:27:23.086Z,97213.36
2018-12-03T18:29:33.951Z,97204.59
2018-12-03T18:31:44.790Z,97202.80
2018-12-03T18:33:55.682Z,97201.89
2018-12-03T18:36:06.559Z,97205.91
2018-12-03T18:38:17.570Z,97210.30
2018-12-03T18:40:28.427Z,97206.28
2018-12-03T18:42:39.322Z,97206.77
2018-12-03T18:44:50.197Z,97206.39
2018-12-03T18:47:01.164Z,97207.69
2018-12-03T18:49:12.053Z,97213.27
2018-12-03T18:51:22.946Z,97219.05
2018-12-03T18:53:33.846Z,97213.84
2018-12-03T18:55:44.699Z,97225.42
2018-12-03T18:57:55.679Z,97225.51
2018-12-03T19:00:09.578Z,97226.70
2018-12-03T19:02:20.460Z,97215.17
2018-12-03T19:04:31.337Z,97216.63
2018-12-03T19:06:42.239Z,97221.13
2018-12-03T19:08:53.100Z,97222.80
2018-12-03T19:11:04.004Z,97219.95
2018-12-03T19:13:14.901Z,97242.05
2018-12-03T19:15:25.771Z,97243.39
2018-12-03T19:17:36.664Z,97235.58
2018-12-03T19:19:47.564Z,97225.76
2018-12-03T19:21:58.438Z,97238.20
2018-12-03T19:24:09.342Z,97240.13
2018-12-03T19:26:20.213Z,97236.22
2018-12-03T19:28:31.112Z,97243.89
2018-12-03T19:30:42.003Z,97254.22
2018-12-03T19:32:52.979Z,97254.70
2018-12-03T19:35:04.018Z,97264.05
2018-12-03T19:37:14.882Z,97260.73
2018-12-03T19:39:25.766Z,97275.39
2018-12-03T19:41:36.601Z,97283.82
2018-12-03T19:43:47.491Z,97298.83
2018-12-03T19:45:58.402Z,97307.34
2018-12-03T19:48:09.243Z,97308.56
2018-12-03T19:50:20.173Z,97309.30
2018-12-03T19:52:31.061Z,97315.81
2018-12-03T19:54:42.222Z,97325.91
2018-12-03T19:56:53.267Z,97331.33
2018-12-03T19:59:04.249Z,97328.52
2018-12-03T20:01:15.129Z,97351.80
2018-12-03T20:03:25.993Z,97374.06
2018-12-03T20:05:36.845Z,97380.47
2018-12-03T20:07:47.717Z,97404.13
2018-12-03T20:09:58.606Z,97412.98
2018-12-03T20:12:09.501Z,97411.58
2018-12-03T20:14:20.389Z,97421.63
2018-12-03T20:16:31.287Z,97424.37
2018-12-03T20:18:42.169Z,97431.80
2018-12-03T20:20:53.060Z,97432.77
2018-12-03T20:23:04.180Z,97438.31
2018-12-03T20:25:15.171Z,97435.02
2018-12-03T20:27:26.251Z,97442.44
2018-12-03T20:29:37.161Z,97449.89
2018-12-03T20:31:53.750Z,97465.00
2018-12-03T20:34:06.727Z,97475.75
2018-12-03T20:36:18.459Z,97485.34
2018-12-03T20:38:29.594Z,97491.50
2018-12-03T20:40:40.801Z,97500.67
2018-12-03T20:42:51.774Z,97497.95
2018-12-03T20:45:06.786Z,97511.91
2018-12-03T20:47:17.730Z,97532.45
2018-12-03T20:49:29.075Z,97535.41
2018-12-03T20:51:40.077Z,97538.13
2018-12-03T20:53:50.949Z,97552.53
2018-12-03T20:56:01.833Z,97577.61
2018-12-03T20:58:12.744Z,97565.52
2018-12-03T21:00:23.746Z,97589.88
2018-12-03T21:02:34.624Z,97589.02
2018-12-03T21:04:45.525Z,97595.77
2018-12-03T21:06:56.420Z,97605.91
2018-12-03T21:09:07.286Z,97609.45
2018-12-03T21:11:18.321Z,97619.60
2018-12-03T21:13:29.379Z,97626.96
2018-12-03T21:15:40.267Z,97625.49
2018-12-03T21:17:51.151Z,97636.02
2018-12-03T21:20:05.135Z,97634.59
2018-12-03T21:22:16.012Z,97624.67
2018-12-03T21:24:26.919Z,97646.28
2018-12-03T21:26:37.842Z,97646.14
2018-12-03T21:28:48.732Z,97657.84
2018-12-03T21:30:59.675Z,97655.94
2018-12-03T21:33:10.520Z,97653.67
2018-12-03T21:35:21.410Z,97661.95
2018-12-03T21:37:32.304Z,97671.52
2018-12-03T21:39:48.043Z,97683.09
2018-12-03T21:41:56.147Z,97684.81
2018-12-03T21:44:07.004Z,97690.75
2018-12-03T21:46:17.987Z,97699.72
2018-12-03T21:48:29.705Z,97707.28
2018-12-03T21:50:40.643Z,97707.84
2018-12-03T21:52:51.489Z,97703.22
2018-12-03T21:55:02.973Z,97719.19
2018-12-03T21:57:13.853Z,97721.47
2018-12-03T21:59:24.672Z,97722.89
2018-12-03T22:01:35.541Z,97724.39
2018-12-03T22:03:46.373Z,97733.28
2018-12-03T22:05:57.221Z,97736.50
2018-12-03T22:08:08.109Z,97746.06
2018-12-03T22:10:18.966Z,97756.55
2018-12-03T22:12:29.838Z,97754.13
2018-12-03T22:14:40.718Z,97759.67
2018-12-03T22:16:51.619Z,97761.53
2018-12-03T22:19:02.485Z,97760.83
2018-12-03T22:21:13.337Z,97770.13
2018-12-03T22:23:24.308Z,97780.05
2018-12-03T22:25:35.178Z,97773.55
2018-12-03T22:27:46.064Z,97768.50
2018-12-03T22:29:56.897Z,97764.11
2018-12-03T22:32:07.757Z,97776.27
2018-12-03T22:34:22.985Z,97773.55
2018-12-03T22:36:31.498Z,97772.93
2018-12-03T22:38:42.358Z,97775.17
2018-12-03T22:40:53.217Z,97776.09
2018-12-03T22:43:04.102Z,97786.87
2018-12-03T22:45:14.953Z,97793.78
2018-12-03T22:47:25.806Z,97798.30
2018-12-03T22:49:36.662Z,97798.18
2018-12-03T22:51:47.626Z,97806.09
2018-12-03T22:53:58.513Z,97816.48
2018-12-03T22:56:09.383Z,97815.39
2018-12-03T22:58:20.332Z,97813.35
2018-12-03T23:00:35.269Z,97807.06
2018-12-03T23:02:46.127Z,97801.04
2018-12-03T23:04:56.981Z,97809.66
2018-12-03T23:07:07.864Z,97803.60
2018-12-03T23:09:18.756Z,97807.70
2018-12-03T23:11:29.590Z,97805.78
2018-12-03T23:13:40.483Z,97806.80
2018-12-03T23:15:51.333Z,97809.41
2018-12-03T23:18:02.185Z,97805.98
2018-12-03T23:20:13.044Z,97808.94
2018-12-03T23:22:23.861Z,97805.15
2018-12-03T23:24:34.803Z,97807.59
2018-12-03T23:26:45.667Z,97806.06
2018-12-03T23:28:56.598Z,97802.75
2018-12-03T23:31:07.449Z,97802.64
2018-12-03T23:33:18.300Z,97804.41
2018-12-03T23:35:29.180Z,97806.80
2018-12-03T23:37:40.021Z,97810.70
2018-12-03T23:39:50.856Z,97816.38
2018-12-03T23:42:01.717Z,97820.47
2018-12-03T23:44:12.569Z,97823.13
2018-12-03T23:46:24.236Z,97825.55
2018-12-03T23:48:35.080Z,97823.06
2018-12-03T23:50:45.940Z,97833.66
2018-12-03T23:52:56.778Z,97828.14
2018-12-03T23:55:07.749Z,97832.62
2018-12-03T23:57:18.713Z,97836.61
2018-12-03T23:59:29.682Z,97835.53
